PWSweather.com
Personal Weather Stations
Station Observations
WAREHAM1
West Wareham, MA 02576

West Wareham, MA 02576

Lat: 41.7961059, Lon: -70.775612

Elevation: 88

Station Type: Davis Vantage Vue

http://www.gateway2capecod.com

High Low Average
Temperature 50.2°F10.1°F 31.5°F-0.3°F 43.7°F6.5°F
Dew Point 48.2°F9.0°F 30.2°F-1.0°F 41.6°F5.3°F
Winds 2.9 mph SE4.7 mph SE Calm Calm 0.5 mph 0.8 mph
Wind Gusts 12.0 mph19.3 mph -- 2.4 mph3.9 mph
Humidity 97% 80% 92%
Pressure 30.15 in1021.00 in 29.69 in1005.40 in -
Precipitation 5.52 in140.20 in - -
Hour Temp Dew Point Humidity Winds Wind Gusts Pressure Precip Precip Rate Daily Precip Total
12:09 AM 31.5°F-0.3°C 30.2°F-1.0°C 95% Calm Calm -- 30.14 in1020.7 mb 0.00 in0.0 mm 0.00 in0.0 mm 0.00 in0.0 mm
12:19 AM 31.8°F-0.1°C 30.6°F-0.8°C 95% Calm Calm -- 30.14 in1020.7 mb 0.00 in0.0 mm 0.00 in0.0 mm 0.00 in0.0 mm
12:29 AM 32.2°F0.1°C 30.9°F-0.6°C 95% Calm Calm -- 30.14 in1020.7 mb 0.00 in0.0 mm 0.00 in0.0 mm 0.00 in0.0 mm
12:39 AM 32.7°F0.4°C 31.5°F-0.3°C 95% Calm Calm -- 30.15 in1021.0 mb 0.00 in0.0 mm 0.00 in0.0 mm 0.00 in0.0 mm
12:49 AM 33.3°F0.7°C 32.0°F0.0°C 95% Calm Calm -- 30.14 in1020.7 mb 0.00 in0.0 mm 0.00 in0.0 mm 0.00 in0.0 mm
12:59 AM 33.4°F0.8°C 32.2°F0.1°C 95% Calm Calm 0.9 mph1.4 kmh 30.14 in1020.7 mb 0.00 in0.0 mm 0.00 in0.0 mm 0.00 in0.0 mm
01:09 AM 33.3°F0.7°C 31.6°F-0.2°C 94% Calm Calm 0.9 mph1.4 kmh 30.13 in1020.3 mb 0.00 in0.0 mm 0.00 in0.0 mm 0.00 in0.0 mm
01:19 AM 33.4°F0.8°C 32.2°F0.1°C 95% Calm Calm 0.9 mph1.4 kmh 30.13 in1020.3 mb 0.00 in0.0 mm 0.00 in0.0 mm 0.00 in0.0 mm
01:29 AM 34.2°F1.2°C 32.9°F0.5°C 95% Calm Calm -- 30.12 in1020.0 mb 0.00 in0.0 mm 0.00 in0.0 mm 0.00 in0.0 mm
01:39 AM 34.5°F1.4°C 33.3°F0.7°C 95% Calm Calm -- 30.12 in1020.0 mb 0.00 in0.0 mm 0.00 in0.0 mm 0.00 in0.0 mm
01:49 AM 34.9°F1.6°C 33.6°F0.9°C 95% Calm Calm 0.9 mph1.4 kmh 30.11 in1019.6 mb 0.00 in0.0 mm 0.00 in0.0 mm 0.00 in0.0 mm
01:59 AM 35.4°F1.9°C 34.2°F1.2°C 95% Calm Calm -- 30.11 in1019.6 mb 0.00 in0.0 mm 0.00 in0.0 mm 0.00 in0.0 mm
02:09 AM 36.0°F2.2°C 34.7°F1.5°C 95% Calm Calm -- 30.11 in1019.6 mb 0.00 in0.0 mm 0.00 in0.0 mm 0.00 in0.0 mm
02:19 AM 36.3°F2.4°C 35.1°F1.7°C 95% Calm Calm -- 30.11 in1019.6 mb 0.00 in0.0 mm 0.00 in0.0 mm 0.00 in0.0 mm
02:29 AM 36.7°F2.6°C 35.4°F1.9°C 95% Calm Calm -- 30.10 in1019.3 mb 0.00 in0.0 mm 0.00 in0.0 mm 0.00 in0.0 mm
02:39 AM 37.0°F2.8°C 35.8°F2.1°C 95% Calm Calm 2.0 mph3.2 kmh 30.09 in1019.0 mb 0.00 in0.0 mm 0.00 in0.0 mm 0.00 in0.0 mm
02:49 AM 37.6°F3.1°C 36.0°F2.2°C 94% Calm Calm 0.9 mph1.4 kmh 30.08 in1018.6 mb 0.00 in0.0 mm 0.00 in0.0 mm 0.00 in0.0 mm
02:59 AM 38.1°F3.4°C 36.5°F2.5°C 94% Calm Calm -- 30.07 in1018.3 mb 0.00 in0.0 mm 0.00 in0.0 mm 0.00 in0.0 mm
03:09 AM 38.8°F3.8°C 37.2°F2.9°C 94% Calm Calm 2.0 mph3.2 kmh 30.06 in1017.9 mb 0.00 in0.0 mm 0.00 in0.0 mm 0.00 in0.0 mm
03:19 AM 39.0°F3.9°C 37.2°F2.9°C 93% Calm Calm -- 30.06 in1017.9 mb 0.00 in0.0 mm 0.00 in0.0 mm 0.00 in0.0 mm
03:29 AM 39.0°F3.9°C 36.9°F2.7°C 92% Calm Calm -- 30.07 in1018.3 mb 0.00 in0.0 mm 0.00 in0.0 mm 0.00 in0.0 mm
03:39 AM 39.2°F4.0°C 37.0°F2.8°C 92% Calm Calm -- 30.08 in1018.6 mb 0.00 in0.0 mm 0.00 in0.0 mm 0.00 in0.0 mm
03:49 AM 39.2°F4.0°C 37.0°F2.8°C 92% Calm Calm -- 30.07 in1018.3 mb 0.00 in0.0 mm 0.00 in0.0 mm 0.00 in0.0 mm
03:59 AM 39.4°F4.1°C 37.2°F2.9°C 92% Calm Calm -- 30.07 in1018.3 mb 0.00 in0.0 mm 0.00 in0.0 mm 0.00 in0.0 mm
04:09 AM 39.6°F4.2°C 37.4°F3.0°C 92% Calm Calm -- 30.07 in1018.3 mb 0.00 in0.0 mm 0.00 in0.0 mm 0.00 in0.0 mm
04:19 AM 39.7°F4.3°C 37.6°F3.1°C 92% Calm Calm -- 30.06 in1017.9 mb 0.00 in0.0 mm 0.00 in0.0 mm 0.00 in0.0 mm
04:29 AM 39.9°F4.4°C 37.8°F3.2°C 92% Calm Calm -- 30.07 in1018.3 mb 0.00 in0.0 mm 0.00 in0.0 mm 0.00 in0.0 mm
04:39 AM 39.9°F4.4°C 37.8°F3.2°C 92% Calm Calm -- 30.06 in1017.9 mb 0.00 in0.0 mm 0.00 in0.0 mm 0.00 in0.0 mm
04:49 AM 39.9°F4.4°C 37.8°F3.2°C 92% Calm Calm -- 30.06 in1017.9 mb 0.00 in0.0 mm 0.00 in0.0 mm 0.00 in0.0 mm
04:59 AM 39.9°F4.4°C 37.8°F3.2°C 92% Calm Calm -- 30.06 in1017.9 mb 0.00 in0.0 mm 0.00 in0.0 mm 0.00 in0.0 mm
05:09 AM 40.3°F4.6°C 38.1°F3.4°C 92% Calm Calm -- 30.05 in1017.6 mb 0.00 in0.0 mm 0.00 in0.0 mm 0.00 in0.0 mm
05:19 AM 40.5°F4.7°C 38.3°F3.5°C 92% Calm Calm -- 30.04 in1017.3 mb 0.00 in0.0 mm 0.00 in0.0 mm 0.00 in0.0 mm
05:29 AM 41.2°F5.1°C 38.8°F3.8°C 91% Calm Calm 2.0 mph3.2 kmh 30.03 in1016.9 mb 0.00 in0.0 mm 0.00 in0.0 mm 0.00 in0.0 mm
05:39 AM 40.8°F4.9°C 38.5°F3.6°C 91% Calm Calm -- 30.03 in1016.9 mb 0.00 in0.0 mm 0.00 in0.0 mm 0.00 in0.0 mm
05:49 AM 40.6°F4.8°C 38.3°F3.5°C 91% Calm Calm -- 30.02 in1016.6 mb 0.00 in0.0 mm 0.00 in0.0 mm 0.00 in0.0 mm
05:59 AM 40.6°F4.8°C 38.3°F3.5°C 91% Calm Calm -- 30.02 in1016.6 mb 0.00 in0.0 mm 0.00 in0.0 mm 0.00 in0.0 mm
06:09 AM 40.6°F4.8°C 38.5°F3.6°C 92% Calm Calm -- 30.02 in1016.6 mb 0.00 in0.0 mm 0.00 in0.0 mm 0.00 in0.0 mm
06:19 AM 40.6°F4.8°C 38.5°F3.6°C 92% Calm Calm -- 30.02 in1016.6 mb 0.00 in0.0 mm 0.00 in0.0 mm 0.00 in0.0 mm
06:29 AM 40.8°F4.9°C 38.7°F3.7°C 92% Calm Calm -- 30.01 in1016.3 mb 0.00 in0.0 mm 0.00 in0.0 mm 0.00 in0.0 mm
06:39 AM 41.5°F5.3°C 39.4°F4.1°C 92% Calm Calm 0.9 mph1.4 kmh 30.01 in1016.3 mb 0.00 in0.0 mm 0.00 in0.0 mm 0.00 in0.0 mm
06:49 AM 42.1°F5.6°C 39.6°F4.2°C 91% Calm Calm 0.9 mph1.4 kmh 30.00 in1015.9 mb 0.00 in0.0 mm 0.00 in0.0 mm 0.00 in0.0 mm
06:59 AM 42.6°F5.9°C 40.1°F4.5°C 91% Calm Calm 2.0 mph3.2 kmh 30.00 in1015.9 mb 0.00 in0.0 mm 0.00 in0.0 mm 0.00 in0.0 mm
07:09 AM 44.1°F6.7°C 41.0°F5.0°C 89% 0.9 mph ESE1.4 kmh ESE 4.0 mph6.4 kmh 29.99 in1015.6 mb 0.00 in0.0 mm 0.00 in0.0 mm 0.00 in0.0 mm
07:19 AM 44.8°F7.1°C 41.4°F5.2°C 88% 0.9 mph ESE1.4 kmh ESE 2.9 mph4.7 kmh 29.97 in1014.9 mb 0.00 in0.0 mm 0.00 in0.0 mm 0.00 in0.0 mm
07:29 AM 45.5°F7.5°C 41.5°F5.3°C 86% 0.9 mph SE1.4 kmh SE 4.0 mph6.4 kmh 29.96 in1014.6 mb 0.00 in0.0 mm 0.00 in0.0 mm 0.00 in0.0 mm
07:39 AM 45.7°F7.6°C 41.7°F5.4°C 86% Calm Calm 2.9 mph4.7 kmh 30.00 in1015.9 mb 0.00 in0.0 mm 0.00 in0.0 mm 0.00 in0.0 mm
07:49 AM 46.0°F7.8°C 41.7°F5.4°C 85% 0.9 mph ESE1.4 kmh ESE 4.0 mph6.4 kmh 29.99 in1015.6 mb 0.00 in0.0 mm 0.00 in0.0 mm 0.00 in0.0 mm
07:59 AM 46.4°F8.0°C 41.9°F5.5°C 84% 0.9 mph ESE1.4 kmh ESE 5.0 mph8.0 kmh 29.98 in1015.2 mb 0.00 in0.0 mm 0.00 in0.0 mm 0.00 in0.0 mm
08:09 AM 46.2°F7.9°C 41.9°F5.5°C 85% 0.9 mph S1.4 kmh S 4.0 mph6.4 kmh 29.98 in1015.2 mb 0.00 in0.0 mm 0.00 in0.0 mm 0.00 in0.0 mm
08:19 AM 46.4°F8.0°C 41.9°F5.5°C 84% 0.9 mph SE1.4 kmh SE 2.9 mph4.7 kmh 29.98 in1015.2 mb 0.00 in0.0 mm 0.00 in0.0 mm 0.00 in0.0 mm
08:29 AM 46.8°F8.2°C 42.3°F5.7°C 84% 0.9 mph SE1.4 kmh SE 4.9 mph7.9 kmh 29.97 in1014.9 mb 0.00 in0.0 mm 0.00 in0.0 mm 0.00 in0.0 mm
08:39 AM 46.8°F8.2°C 42.3°F5.7°C 84% 0.9 mph SE1.4 kmh SE 2.9 mph4.7 kmh 29.98 in1015.2 mb 0.00 in0.0 mm 0.00 in0.0 mm 0.00 in0.0 mm
08:49 AM 47.1°F8.4°C 42.6°F5.9°C 84% 2.0 mph SSE3.2 kmh SSE 4.9 mph7.9 kmh 29.97 in1014.9 mb 0.00 in0.0 mm 0.00 in0.0 mm 0.00 in0.0 mm
08:59 AM 47.1°F8.4°C 42.3°F5.7°C 83% 2.0 mph SE3.2 kmh SE 6.0 mph9.7 kmh 29.96 in1014.6 mb 0.00 in0.0 mm 0.00 in0.0 mm 0.00 in0.0 mm
09:09 AM 47.5°F8.6°C 42.3°F5.7°C 82% 2.0 mph SE3.2 kmh SE 5.0 mph8.0 kmh 29.95 in1014.2 mb 0.00 in0.0 mm 0.00 in0.0 mm 0.00 in0.0 mm
09:19 AM 47.7°F8.7°C 42.4°F5.8°C 82% 2.0 mph SE3.2 kmh SE 4.9 mph7.9 kmh 29.95 in1014.2 mb 0.00 in0.0 mm 0.00 in0.0 mm 0.00 in0.0 mm
09:29 AM 48.0°F8.9°C 42.8°F6.0°C 82% 2.0 mph S3.2 kmh S 6.9 mph11.1 kmh 29.95 in1014.2 mb 0.00 in0.0 mm 0.00 in0.0 mm 0.00 in0.0 mm
09:39 AM 48.6°F9.2°C 42.6°F5.9°C 80% 2.0 mph SSE3.2 kmh SSE 6.9 mph11.1 kmh 29.93 in1013.5 mb 0.00 in0.0 mm 0.00 in0.0 mm 0.00 in0.0 mm
09:49 AM 48.6°F9.2°C 43.0°F6.1°C 81% 2.0 mph SE3.2 kmh SE 8.1 mph13.0 kmh 29.93 in1013.5 mb 0.00 in0.0 mm 0.00 in0.0 mm 0.00 in0.0 mm
09:59 AM 48.7°F9.3°C 42.8°F6.0°C 80% 2.0 mph SE3.2 kmh SE 4.9 mph7.9 kmh 29.92 in1013.2 mb 0.00 in0.0 mm 0.00 in0.0 mm 0.00 in0.0 mm
10:09 AM 48.7°F9.3°C 42.8°F6.0°C 80% 2.0 mph E3.2 kmh E 5.0 mph8.0 kmh 29.92 in1013.2 mb 0.00 in0.0 mm 0.00 in0.0 mm 0.00 in0.0 mm
10:19 AM 48.7°F9.3°C 43.2°F6.2°C 81% 0.9 mph ESE1.4 kmh ESE 6.9 mph11.1 kmh 29.92 in1013.2 mb 0.00 in0.0 mm 0.00 in0.0 mm 0.00 in0.0 mm
10:29 AM 48.9°F9.4°C 43.3°F6.3°C 81% 2.0 mph SE3.2 kmh SE 6.9 mph11.1 kmh 29.92 in1013.2 mb 0.00 in0.0 mm 0.00 in0.0 mm 0.00 in0.0 mm
10:39 AM 49.3°F9.6°C 43.7°F6.5°C 81% 2.0 mph S3.2 kmh S 8.9 mph14.3 kmh 29.91 in1012.9 mb 0.00 in0.0 mm 0.00 in0.0 mm 0.00 in0.0 mm
10:49 AM 49.5°F9.7°C 44.2°F6.8°C 82% 2.0 mph ESE3.2 kmh ESE 7.0 mph11.3 kmh 29.89 in1012.2 mb 0.00 in0.0 mm 0.00 in0.0 mm 0.00 in0.0 mm
10:59 AM 49.8°F9.9°C 44.8°F7.1°C 83% 2.9 mph SE4.7 kmh SE 7.0 mph11.3 kmh 29.88 in1011.9 mb 0.00 in0.0 mm 0.00 in0.0 mm 0.00 in0.0 mm
11:09 AM 50.2°F10.1°C 45.5°F7.5°C 84% 2.0 mph SSW3.2 kmh SSW 7.0 mph11.3 kmh 29.86 in1011.2 mb 0.00 in0.0 mm 0.00 in0.0 mm 0.00 in0.0 mm
11:19 AM 50.2°F10.1°C 45.5°F7.5°C 84% 2.0 mph SE3.2 kmh SE 7.0 mph11.3 kmh 29.86 in1011.2 mb 0.00 in0.0 mm 0.00 in0.0 mm 0.00 in0.0 mm
11:29 AM 49.8°F9.9°C 45.1°F7.3°C 84% 2.0 mph ESE3.2 kmh ESE 6.0 mph9.7 kmh 29.84 in1010.5 mb 0.00 in0.0 mm 0.00 in0.0 mm 0.00 in0.0 mm
11:39 AM 49.6°F9.8°C 45.9°F7.7°C 87% 2.0 mph SE3.2 kmh SE 4.9 mph7.9 kmh 29.83 in1010.2 mb 0.00 in0.0 mm 0.00 in0.0 mm 0.00 in0.0 mm
11:49 AM 49.5°F9.7°C 45.7°F7.6°C 87% 2.0 mph SE3.2 kmh SE 6.0 mph9.7 kmh 29.82 in1009.8 mb 0.00 in0.0 mm 0.00 in0.0 mm 0.00 in0.0 mm
11:59 AM 48.9°F9.4°C 45.9°F7.7°C 89% 2.0 mph SE3.2 kmh SE 4.9 mph7.9 kmh 29.82 in1009.8 mb 0.00 in0.0 mm 0.00 in0.0 mm 0.00 in0.0 mm
12:09 PM 48.4°F9.1°C 45.5°F7.5°C 90% 0.9 mph SE1.4 kmh SE 5.0 mph8.0 kmh 29.81 in1009.5 mb 0.02 in0.5 mm 0.02 in0.5 mm 0.02 in0.5 mm
12:19 PM 48.0°F8.9°C 45.9°F7.7°C 92% 2.0 mph SE3.2 kmh SE 6.0 mph9.7 kmh 29.80 in1009.1 mb 0.04 in1.0 mm 0.12 in3.0 mm 0.04 in1.0 mm
12:29 PM 47.8°F8.8°C 45.9°F7.7°C 93% 0.9 mph SE1.4 kmh SE 4.0 mph6.4 kmh 29.80 in1009.1 mb 0.06 in1.5 mm 0.12 in3.0 mm 0.06 in1.5 mm
12:39 PM 47.7°F8.7°C 46.0°F7.8°C 94% 0.9 mph ESE1.4 kmh ESE 4.0 mph6.4 kmh 29.78 in1008.5 mb 0.09 in2.3 mm 0.18 in4.6 mm 0.09 in2.3 mm
12:49 PM 47.7°F8.7°C 46.0°F7.8°C 94% Calm Calm 3.0 mph4.8 kmh 29.78 in1008.5 mb 0.14 in3.6 mm 0.30 in7.6 mm 0.14 in3.6 mm
12:59 PM 47.7°F8.7°C 46.2°F7.9°C 95% Calm Calm 2.0 mph3.2 kmh 29.78 in1008.5 mb 0.15 in3.8 mm 0.06 in1.5 mm 0.15 in3.8 mm
01:09 PM 47.8°F8.8°C 46.4°F8.0°C 95% Calm Calm 2.9 mph4.7 kmh 29.77 in1008.1 mb 0.17 in4.3 mm 0.02 in0.5 mm 0.19 in4.8 mm
01:19 PM 47.8°F8.8°C 46.4°F8.0°C 95% Calm Calm 0.9 mph1.4 kmh 29.76 in1007.8 mb 0.17 in4.3 mm 0.00 in0.0 mm 0.21 in5.3 mm
01:29 PM 47.8°F8.8°C 46.4°F8.0°C 95% Calm Calm 3.0 mph4.8 kmh 29.75 in1007.5 mb 0.17 in4.3 mm 0.00 in0.0 mm 0.23 in5.8 mm
01:39 PM 48.0°F8.9°C 46.6°F8.1°C 95% Calm Calm 0.9 mph1.4 kmh 29.73 in1006.8 mb 0.18 in4.6 mm 0.06 in1.5 mm 0.27 in6.9 mm
01:49 PM 48.0°F8.9°C 46.9°F8.3°C 96% Calm Calm -- 29.74 in1007.1 mb 0.17 in4.3 mm 0.00 in0.0 mm 0.33 in8.4 mm
01:59 PM 48.0°F8.9°C 46.9°F8.3°C 96% Calm Calm -- 29.73 in1006.8 mb 0.32 in8.1 mm 0.90 in22.9 mm 0.47 in11.9 mm
02:10 PM 48.0°F8.9°C 46.9°F8.3°C 96% Calm Calm -- 29.73 in1006.8 mb 0.35 in8.9 mm 0.04 in1.0 mm 0.55 in14.0 mm
02:20 PM 48.0°F8.9°C 46.9°F8.3°C 96% Calm Calm -- 29.73 in1006.8 mb 0.41 in10.4 mm 0.36 in9.1 mm 0.62 in15.7 mm
02:30 PM 48.0°F8.9°C 46.9°F8.3°C 96% Calm Calm -- 29.72 in1006.4 mb 0.44 in11.2 mm 0.18 in4.6 mm 0.67 in17.0 mm
02:40 PM 48.2°F9.0°C 47.1°F8.4°C 96% 0.9 mph NW1.4 kmh NW 2.9 mph4.7 kmh 29.73 in1006.8 mb 0.46 in11.7 mm 0.12 in3.0 mm 0.73 in18.5 mm
02:50 PM 48.2°F9.0°C 47.1°F8.4°C 96% Calm Calm 0.9 mph1.4 kmh 29.72 in1006.4 mb 0.50 in12.7 mm 0.24 in6.1 mm 0.81 in20.6 mm
03:00 PM 48.4°F9.1°C 47.3°F8.5°C 96% Calm Calm -- 29.72 in1006.4 mb 0.39 in9.9 mm 0.00 in0.0 mm 0.86 in21.8 mm
03:10 PM 48.6°F9.2°C 47.5°F8.6°C 96% Calm Calm -- 29.71 in1006.1 mb 0.35 in8.9 mm 0.00 in0.0 mm 0.89 in22.6 mm
03:20 PM 48.6°F9.2°C 47.5°F8.6°C 96% Calm Calm -- 29.70 in1005.8 mb 0.27 in6.9 mm 0.00 in0.0 mm 0.89 in22.6 mm
03:30 PM 48.6°F9.2°C 47.5°F8.6°C 96% Calm Calm -- 29.70 in1005.8 mb 0.22 in5.6 mm 0.00 in0.0 mm 0.89 in22.6 mm
03:40 PM 48.7°F9.3°C 47.7°F8.7°C 96% Calm Calm -- 29.71 in1006.1 mb 0.16 in4.1 mm 0.00 in0.0 mm 0.89 in22.6 mm
03:50 PM 48.7°F9.3°C 47.7°F8.7°C 96% Calm Calm 1.0 mph1.6 kmh 29.72 in1006.4 mb 0.09 in2.3 mm 0.00 in0.0 mm 0.90 in22.9 mm
04:00 PM 48.9°F9.4°C 48.0°F8.9°C 97% Calm Calm 2.0 mph3.2 kmh 29.70 in1005.8 mb 0.05 in1.3 mm 0.00 in0.0 mm 0.91 in23.1 mm
04:10 PM 49.1°F9.5°C 48.2°F9.0°C 97% Calm Calm 0.9 mph1.4 kmh 29.70 in1005.8 mb 0.03 in0.8 mm 0.00 in0.0 mm 0.92 in23.4 mm
04:20 PM 48.9°F9.4°C 47.8°F8.8°C 96% Calm Calm -- 29.70 in1005.8 mb 0.03 in0.8 mm 0.00 in0.0 mm 0.92 in23.4 mm
04:30 PM 48.6°F9.2°C 47.5°F8.6°C 96% Calm Calm -- 29.70 in1005.8 mb 0.03 in0.8 mm 0.00 in0.0 mm 0.92 in23.4 mm
04:40 PM 48.0°F8.9°C 46.9°F8.3°C 96% Calm Calm -- 29.70 in1005.8 mb 0.03 in0.8 mm 0.00 in0.0 mm 0.92 in23.4 mm
04:50 PM 47.5°F8.6°C 46.4°F8.0°C 96% Calm Calm -- 29.70 in1005.8 mb 0.02 in0.5 mm 0.00 in0.0 mm 0.92 in23.4 mm
05:00 PM 46.9°F8.3°C 45.9°F7.7°C 96% Calm Calm -- 29.70 in1005.8 mb 0.01 in0.3 mm 0.00 in0.0 mm 0.92 in23.4 mm
05:10 PM 46.4°F8.0°C 45.3°F7.4°C 96% Calm Calm -- 29.69 in1005.4 mb 0.00 in0.0 mm 0.00 in0.0 mm 0.92 in23.4 mm
05:20 PM 45.9°F7.7°C 44.8°F7.1°C 96% Calm Calm -- 29.70 in1005.8 mb 0.00 in0.0 mm 0.00 in0.0 mm 0.92 in23.4 mm
05:30 PM 46.0°F7.8°C 45.3°F7.4°C 97% Calm Calm -- 29.71 in1006.1 mb 0.00 in0.0 mm 0.00 in0.0 mm 0.92 in23.4 mm
05:40 PM 46.8°F8.2°C 46.0°F7.8°C 97% Calm Calm 2.0 mph3.2 kmh 29.72 in1006.4 mb 0.00 in0.0 mm 0.00 in0.0 mm 0.92 in23.4 mm
05:50 PM 47.1°F8.4°C 46.4°F8.0°C 97% Calm Calm 0.9 mph1.4 kmh 29.72 in1006.4 mb 0.00 in0.0 mm 0.00 in0.0 mm 0.92 in23.4 mm
06:00 PM 47.3°F8.5°C 46.6°F8.1°C 97% Calm Calm 1.0 mph1.6 kmh 29.72 in1006.4 mb 0.00 in0.0 mm 0.00 in0.0 mm 0.92 in23.4 mm
06:10 PM 47.3°F8.5°C 46.6°F8.1°C 97% 0.9 mph S1.4 kmh S 4.9 mph7.9 kmh 29.70 in1005.8 mb 0.00 in0.0 mm 0.00 in0.0 mm 0.92 in23.4 mm
06:20 PM 46.8°F8.2°C 46.0°F7.8°C 97% Calm Calm 0.9 mph1.4 kmh 29.71 in1006.1 mb 0.00 in0.0 mm 0.00 in0.0 mm 0.92 in23.4 mm
06:30 PM 45.9°F7.7°C 44.8°F7.1°C 96% Calm Calm 2.0 mph3.2 kmh 29.71 in1006.1 mb 0.00 in0.0 mm 0.00 in0.0 mm 0.92 in23.4 mm
06:40 PM 45.1°F7.3°C 44.1°F6.7°C 96% Calm Calm 0.9 mph1.4 kmh 29.72 in1006.4 mb 0.00 in0.0 mm 0.00 in0.0 mm 0.92 in23.4 mm
06:50 PM 45.1°F7.3°C 44.4°F6.9°C 97% 0.9 mph NNE1.4 kmh NNE 10.1 mph16.3 kmh 29.72 in1006.4 mb 0.00 in0.0 mm 0.00 in0.0 mm 0.92 in23.4 mm
07:00 PM 45.3°F7.4°C 44.2°F6.8°C 96% 2.0 mph SE3.2 kmh SE 12.0 mph19.3 kmh 29.72 in1006.4 mb 0.00 in0.0 mm 0.00 in0.0 mm 0.92 in23.4 mm
07:10 PM 45.1°F7.3°C 43.9°F6.6°C 95% 0.9 mph W1.4 kmh W 6.0 mph9.7 kmh 29.72 in1006.4 mb 0.00 in0.0 mm 0.00 in0.0 mm 0.92 in23.4 mm
07:20 PM 44.8°F7.1°C 43.2°F6.2°C 94% Calm Calm 2.9 mph4.7 kmh 29.72 in1006.4 mb 0.00 in0.0 mm 0.00 in0.0 mm 0.92 in23.4 mm
07:30 PM 44.2°F6.8°C 42.6°F5.9°C 94% Calm Calm -- 29.72 in1006.4 mb 0.00 in0.0 mm 0.00 in0.0 mm 0.92 in23.4 mm
07:40 PM 43.7°F6.5°C 42.1°F5.6°C 94% Calm Calm -- 29.72 in1006.4 mb 0.00 in0.0 mm 0.00 in0.0 mm 0.92 in23.4 mm
07:50 PM 43.2°F6.2°C 41.9°F5.5°C 95% Calm Calm -- 29.73 in1006.8 mb 0.00 in0.0 mm 0.00 in0.0 mm 0.92 in23.4 mm
08:00 PM 43.0°F6.1°C 41.7°F5.4°C 95% Calm Calm 0.9 mph1.4 kmh 29.73 in1006.8 mb 0.00 in0.0 mm 0.00 in0.0 mm 0.92 in23.4 mm
08:10 PM 42.6°F5.9°C 41.4°F5.2°C 95% Calm Calm 2.0 mph3.2 kmh 29.73 in1006.8 mb 0.00 in0.0 mm 0.00 in0.0 mm 0.92 in23.4 mm
08:20 PM 42.6°F5.9°C 41.4°F5.2°C 95% Calm Calm 2.9 mph4.7 kmh 29.73 in1006.8 mb 0.00 in0.0 mm 0.00 in0.0 mm 0.92 in23.4 mm
08:30 PM 42.6°F5.9°C 41.4°F5.2°C 95% Calm Calm 0.9 mph1.4 kmh 29.73 in1006.8 mb 0.00 in0.0 mm 0.00 in0.0 mm 0.92 in23.4 mm
08:40 PM 42.4°F5.8°C 41.2°F5.1°C 95% Calm Calm 0.9 mph1.4 kmh 29.74 in1007.1 mb 0.00 in0.0 mm 0.00 in0.0 mm 0.92 in23.4 mm
08:50 PM 42.4°F5.8°C 41.4°F5.2°C 96% Calm Calm 2.0 mph3.2 kmh 29.74 in1007.1 mb 0.00 in0.0 mm 0.00 in0.0 mm 0.92 in23.4 mm
09:00 PM 42.4°F5.8°C 41.4°F5.2°C 96% Calm Calm 2.0 mph3.2 kmh 29.73 in1006.8 mb 0.00 in0.0 mm 0.00 in0.0 mm 0.92 in23.4 mm
09:10 PM 42.4°F5.8°C 41.4°F5.2°C 96% Calm Calm 3.0 mph4.8 kmh 29.73 in1006.8 mb 0.00 in0.0 mm 0.00 in0.0 mm 0.92 in23.4 mm
09:20 PM 42.3°F5.7°C 41.0°F5.0°C 95% Calm Calm 2.9 mph4.7 kmh 29.73 in1006.8 mb 0.00 in0.0 mm 0.00 in0.0 mm 0.92 in23.4 mm
09:30 PM 42.3°F5.7°C 41.2°F5.1°C 96% 0.9 mph W1.4 kmh W 4.0 mph6.4 kmh 29.73 in1006.8 mb 0.00 in0.0 mm 0.00 in0.0 mm 0.92 in23.4 mm
09:40 PM 42.4°F5.8°C 41.2°F5.1°C 95% 0.9 mph WSW1.4 kmh WSW 5.0 mph8.0 kmh 29.73 in1006.8 mb 0.00 in0.0 mm 0.00 in0.0 mm 0.92 in23.4 mm
09:50 PM 42.3°F5.7°C 41.0°F5.0°C 95% 0.9 mph W1.4 kmh W 4.0 mph6.4 kmh 29.73 in1006.8 mb 0.00 in0.0 mm 0.00 in0.0 mm 0.92 in23.4 mm
10:00 PM 42.3°F5.7°C 41.0°F5.0°C 95% Calm Calm 2.0 mph3.2 kmh 29.73 in1006.8 mb 0.00 in0.0 mm 0.00 in0.0 mm 0.92 in23.4 mm
10:10 PM 42.1°F5.6°C 40.8°F4.9°C 95% 0.9 mph SW1.4 kmh SW 8.1 mph13.0 kmh 29.73 in1006.8 mb 0.00 in0.0 mm 0.00 in0.0 mm 0.92 in23.4 mm
10:20 PM 42.1°F5.6°C 40.8°F4.9°C 95% 0.9 mph SSW1.4 kmh SSW 4.0 mph6.4 kmh 29.72 in1006.4 mb 0.00 in0.0 mm 0.00 in0.0 mm 0.92 in23.4 mm
10:30 PM 41.7°F5.4°C 40.5°F4.7°C 95% Calm Calm 4.0 mph6.4 kmh 29.72 in1006.4 mb 0.00 in0.0 mm 0.00 in0.0 mm 0.92 in23.4 mm
10:40 PM 41.7°F5.4°C 40.5°F4.7°C 95% Calm Calm 3.0 mph4.8 kmh 29.72 in1006.4 mb 0.00 in0.0 mm 0.00 in0.0 mm 0.92 in23.4 mm
10:50 PM 41.5°F5.3°C 40.3°F4.6°C 95% Calm Calm 5.0 mph8.0 kmh 29.72 in1006.4 mb 0.00 in0.0 mm 0.00 in0.0 mm 0.92 in23.4 mm
11:00 PM 41.5°F5.3°C 39.9°F4.4°C 94% 0.9 mph W1.4 kmh W 4.9 mph7.9 kmh 29.72 in1006.4 mb 0.00 in0.0 mm 0.00 in0.0 mm 0.92 in23.4 mm
11:10 PM 41.4°F5.2°C 39.7°F4.3°C 94% Calm Calm 4.0 mph6.4 kmh 29.73 in1006.8 mb 0.00 in0.0 mm 0.00 in0.0 mm 0.92 in23.4 mm
11:20 PM 41.4°F5.2°C 39.6°F4.2°C 93% 0.9 mph SW1.4 kmh SW 2.9 mph4.7 kmh 29.73 in1006.8 mb 0.00 in0.0 mm 0.00 in0.0 mm 0.92 in23.4 mm
11:30 PM 41.2°F5.1°C 39.6°F4.2°C 94% Calm Calm 4.0 mph6.4 kmh 29.72 in1006.4 mb 0.00 in0.0 mm 0.00 in0.0 mm 0.92 in23.4 mm
11:40 PM 41.2°F5.1°C 39.4°F4.1°C 93% 0.9 mph WSW1.4 kmh WSW 4.0 mph6.4 kmh 29.73 in1006.8 mb 0.00 in0.0 mm 0.00 in0.0 mm 0.92 in23.4 mm
11:50 PM 40.8°F4.9°C 39.0°F3.9°C 93% Calm Calm 4.0 mph6.4 kmh 29.73 in1006.8 mb 0.00 in0.0 mm 0.00 in0.0 mm 0.92 in23.4 mm